createdAt,value
2016-10-28T00:01:00.540Z,0
2016-10-28T00:02:00.860Z,0
2016-10-28T00:03:00.595Z,0
2016-10-28T00:04:00.932Z,0
2016-10-28T00:05:00.622Z,0
2016-10-28T00:06:00.636Z,0
2016-10-28T00:07:00.956Z,0
2016-10-28T00:08:00.999Z,0
2016-10-28T00:09:01.070Z,0
2016-10-28T00:10:01.012Z,0
2016-10-28T00:11:00.403Z,0
2016-10-28T00:12:00.749Z,0
2016-10-28T00:13:00.468Z,0
2016-10-28T00:14:00.810Z,0
2016-10-28T00:15:00.831Z,0
2016-10-28T00:16:01.145Z,0
2016-10-28T00:17:01.171Z,0
2016-10-28T00:18:00.874Z,0
2016-10-28T00:19:00.596Z,0
2016-10-28T00:20:00.584Z,0
2016-10-28T00:21:01.313Z,0
2016-10-28T00:22:01.253Z,0
2016-10-28T00:23:01.264Z,0
2016-10-28T00:24:01.346Z,0
2016-10-28T00:25:00.387Z,0
2016-10-28T00:26:01.034Z,0
2016-10-28T00:27:01.342Z,0
2016-10-28T00:28:01.137Z,0
2016-10-28T00:29:01.388Z,0
2016-10-28T00:30:00.815Z,0
2016-10-28T00:31:01.113Z,0
2016-10-28T00:32:01.248Z,0
2016-10-28T00:33:01.147Z,0
2016-10-28T00:34:01.178Z,0
2016-10-28T00:35:00.877Z,0
2016-10-28T00:36:01.577Z,0
2016-10-28T00:37:01.319Z,0
2016-10-28T00:38:01.257Z,0
2016-10-28T00:39:00.964Z,0
2016-10-28T00:40:01.602Z,0
2016-10-28T00:41:01.311Z,0
2016-10-28T00:42:01.036Z,0
2016-10-28T00:43:01.349Z,0
2016-10-28T00:44:01.683Z,0
2016-10-28T00:45:01.386Z,0
2016-10-28T00:46:01.089Z,0
2016-10-28T00:47:11.764Z,0
2016-10-28T00:48:01.807Z,0
2016-10-28T00:49:01.826Z,0
2016-10-28T00:50:01.203Z,0
2016-10-28T00:51:01.204Z,0
2016-10-28T00:52:01.524Z,0
2016-10-28T00:53:01.866Z,0
2016-10-28T00:54:01.925Z,0
2016-10-28T00:55:01.894Z,0
2016-10-28T00:56:01.925Z,0
2016-10-28T00:57:01.643Z,0
2016-10-28T00:58:01.033Z,0
2016-10-28T00:59:01.437Z,0
2016-10-28T01:00:02.102Z,0
2016-10-28T01:01:02.078Z,0
2016-10-28T01:02:01.428Z,0
2016-10-28T01:03:02.056Z,0
2016-10-28T01:04:02.118Z,0
2016-10-28T01:05:02.094Z,0
2016-10-28T01:06:02.143Z,0
2016-10-28T01:07:01.843Z,0
2016-10-28T01:08:02.178Z,0
2016-10-28T01:09:02.164Z,0
2016-10-28T01:10:02.382Z,0
2016-10-28T01:11:01.604Z,0
2016-10-28T01:12:01.616Z,0
2016-10-28T01:13:02.248Z,0
2016-10-28T01:14:02.318Z,0
2016-10-28T01:15:02.037Z,0
2016-10-28T01:16:02.309Z,0
2016-10-28T01:17:02.074Z,0
2016-10-28T01:18:02.358Z,0
2016-10-28T01:19:02.367Z,0
2016-10-28T01:20:02.397Z,0
2016-10-28T01:21:01.479Z,0
2016-10-28T01:22:02.409Z,0
2016-10-28T01:23:02.247Z,0
2016-10-28T01:24:02.482Z,0
2016-10-28T01:25:02.567Z,0
2016-10-28T01:26:01.964Z,0
2016-10-28T01:27:02.533Z,0
2016-10-28T01:28:02.260Z,0
2016-10-28T01:29:02.635Z,0
2016-10-28T01:30:02.614Z,0
2016-10-28T01:31:01.821Z,0
2016-10-28T01:32:02.613Z,0
2016-10-28T01:33:02.376Z,0
2016-10-28T01:34:02.695Z,0
2016-10-28T01:35:02.506Z,0
2016-10-28T01:36:02.713Z,0
2016-10-28T01:37:02.782Z,0
2016-10-28T01:38:02.752Z,0
2016-10-28T01:39:02.755Z,0
2016-10-28T01:40:02.170Z,0
2016-10-28T01:41:02.804Z,0
2016-10-28T01:42:02.522Z,0
2016-10-28T01:43:01.909Z,0
2016-10-28T01:44:02.596Z,0
2016-10-28T01:45:02.900Z,0
2016-10-28T01:46:02.301Z,0
2016-10-28T01:47:02.943Z,0
2016-10-28T01:48:02.652Z,0
2016-10-28T01:49:02.980Z,0
2016-10-28T01:50:02.754Z,0
2016-10-28T01:51:03.104Z,0
2016-10-28T01:52:03.091Z,0
2016-10-28T01:53:03.025Z,0
2016-10-28T01:54:02.749Z,0
2016-10-28T01:55:03.092Z,0
2016-10-28T01:56:03.141Z,0
2016-10-28T01:57:02.819Z,0
2016-10-28T01:58:03.143Z,0
2016-10-28T01:59:02.537Z,0
2016-10-28T02:00:02.562Z,0
2016-10-28T02:01:03.203Z,0
2016-10-28T02:02:02.902Z,0
2016-10-28T02:03:03.281Z,0
2016-10-28T02:04:02.955Z,0
2016-10-28T02:05:03.293Z,0
2016-10-28T02:06:02.972Z,0
2016-10-28T02:07:03.000Z,0
2016-10-28T02:08:03.341Z,0
2016-10-28T02:09:03.352Z,0
2016-10-28T02:10:03.061Z,0
2016-10-28T02:11:03.092Z,0
2016-10-28T02:12:03.193Z,0
2016-10-28T02:13:03.135Z,0
2016-10-28T02:14:03.541Z,0
2016-10-28T02:15:03.634Z,0
2016-10-28T02:16:03.544Z,0
2016-10-28T02:17:03.643Z,0
2016-10-28T02:18:03.528Z,0
2016-10-28T02:19:03.553Z,0
2016-10-28T02:20:03.343Z,0
2016-10-28T02:21:03.295Z,0
2016-10-28T02:22:03.676Z,0
2016-10-28T02:23:03.659Z,0
2016-10-28T02:24:03.356Z,0
2016-10-28T02:25:03.416Z,0
2016-10-28T02:26:03.484Z,0
2016-10-28T02:27:03.095Z,0
2016-10-28T02:28:03.446Z,0
2016-10-28T02:29:03.486Z,0
2016-10-28T02:30:03.454Z,0
2016-10-28T02:31:03.901Z,0
2016-10-28T02:32:03.206Z,0
2016-10-28T02:33:03.524Z,0
2016-10-28T02:34:03.604Z,0
2016-10-28T02:35:03.625Z,0
2016-10-28T02:36:03.883Z,0
2016-10-28T02:37:03.379Z,0
2016-10-28T02:38:03.294Z,0
2016-10-28T02:39:03.947Z,0
2016-10-28T02:40:03.657Z,0
2016-10-28T02:41:04.048Z,0
2016-10-28T02:42:03.709Z,0
2016-10-28T02:43:04.044Z,0
2016-10-28T02:44:04.111Z,0
2016-10-28T02:45:04.070Z,0
2016-10-28T02:46:03.468Z,0
2016-10-28T02:47:04.102Z,0
2016-10-28T02:48:03.922Z,0
2016-10-28T02:49:03.829Z,0
2016-10-28T02:50:04.176Z,0
2016-10-28T02:51:03.929Z,0
2016-10-28T02:52:04.314Z,0
2016-10-28T02:53:04.325Z,0
2016-10-28T02:54:03.943Z,0
2016-10-28T02:55:04.334Z,0
2016-10-28T02:56:04.019Z,0
2016-10-28T02:57:04.301Z,0
2016-10-28T02:58:04.351Z,0
2016-10-28T02:59:04.347Z,0
2016-10-28T03:00:04.060Z,0
2016-10-28T03:01:04.377Z,0
2016-10-28T03:02:04.151Z,0
2016-10-28T03:03:04.141Z,0
2016-10-28T03:04:04.462Z,0
2016-10-28T03:05:04.550Z,0
2016-10-28T03:06:04.493Z,0
2016-10-28T03:07:04.253Z,0
2016-10-28T03:08:04.274Z,0
2016-10-28T03:09:04.232Z,0
2016-10-28T03:10:03.955Z,0
2016-10-28T03:11:04.289Z,0
2016-10-28T03:12:04.364Z,0
2016-10-28T03:13:04.373Z,0
2016-10-28T03:14:04.654Z,0
2016-10-28T03:15:04.405Z,0
2016-10-28T03:16:04.385Z,0
2016-10-28T03:17:04.541Z,0
2016-10-28T03:18:04.744Z,0
2016-10-28T03:19:04.541Z,0
2016-10-28T03:20:04.149Z,0
2016-10-28T03:21:04.273Z,0
2016-10-28T03:22:04.490Z,0
2016-10-28T03:23:04.515Z,0
2016-10-28T03:24:04.835Z,0
2016-10-28T03:25:04.256Z,0
2016-10-28T03:26:04.927Z,0
2016-10-28T03:27:04.313Z,0
2016-10-28T03:28:04.675Z,0
2016-10-28T03:29:04.672Z,0
2016-10-28T03:30:04.980Z,0
2016-10-28T03:31:04.719Z,0
2016-10-28T03:32:04.492Z,0
2016-10-28T03:33:05.066Z,0
2016-10-28T03:34:05.042Z,0
2016-10-28T03:35:05.068Z,0
2016-10-28T03:36:05.083Z,0
2016-10-28T03:37:04.487Z,0
2016-10-28T03:38:05.107Z,0
2016-10-28T03:39:04.843Z,0
2016-10-28T03:40:05.165Z,0
2016-10-28T03:41:05.176Z,0
2016-10-28T03:42:05.309Z,0
2016-10-28T03:43:05.205Z,0
2016-10-28T03:44:04.933Z,0
2016-10-28T03:45:05.276Z,0
2016-10-28T03:46:05.295Z,0
2016-10-28T03:47:04.991Z,0
2016-10-28T03:48:05.325Z,0
2016-10-28T03:49:05.033Z,0
2016-10-28T03:50:05.359Z,0
2016-10-28T03:51:05.444Z,0
2016-10-28T03:52:05.649Z,0
2016-10-28T03:53:05.108Z,0
2016-10-28T03:54:05.443Z,0
2016-10-28T03:55:05.469Z,0
2016-10-28T03:56:05.573Z,0
2016-10-28T03:57:05.187Z,0
2016-10-28T03:58:05.539Z,0
2016-10-28T03:59:05.548Z,0
2016-10-28T04:00:05.557Z,0
2016-10-28T04:01:05.589Z,0
2016-10-28T04:02:05.359Z,0
2016-10-28T04:03:05.319Z,0
2016-10-28T04:04:05.548Z,0
2016-10-28T04:05:05.571Z,0
2016-10-28T04:06:06.019Z,0
2016-10-28T04:07:05.096Z,0
2016-10-28T04:08:05.311Z,0
2016-10-28T04:09:05.895Z,0
2016-10-28T04:10:05.908Z,0
2016-10-28T04:11:05.460Z,0
2016-10-28T04:12:05.620Z,0
2016-10-28T04:13:05.209Z,0
2016-10-28T04:14:05.220Z,0
2016-10-28T04:15:05.918Z,0
2016-10-28T04:16:05.558Z,0
2016-10-28T04:17:05.350Z,0
2016-10-28T04:18:05.355Z,0
2016-10-28T04:19:06.128Z,0
2016-10-28T04:20:06.048Z,0
2016-10-28T04:21:06.179Z,0
2016-10-28T04:22:06.090Z,0
2016-10-28T04:23:06.367Z,0
2016-10-28T04:24:05.471Z,0
2016-10-28T04:25:06.391Z,0
2016-10-28T04:26:06.069Z,0
2016-10-28T04:27:05.965Z,0
2016-10-28T04:28:05.839Z,0
2016-10-28T04:29:06.231Z,0
2016-10-28T04:30:05.775Z,0
2016-10-28T04:31:06.380Z,0
2016-10-28T04:32:06.217Z,0
2016-10-28T04:33:06.252Z,0
2016-10-28T04:34:06.093Z,0
2016-10-28T04:35:05.992Z,0
2016-10-28T04:36:06.381Z,0
2016-10-28T04:37:05.998Z,0
2016-10-28T04:38:05.892Z,0
2016-10-28T04:39:06.022Z,0
2016-10-28T04:40:06.850Z,0
2016-10-28T04:41:06.184Z,0
2016-10-28T04:42:06.543Z,0
2016-10-28T04:43:06.171Z,0
2016-10-28T04:44:06.159Z,0
2016-10-28T04:45:06.913Z,0
2016-10-28T04:46:06.212Z,0
2016-10-28T04:47:06.499Z,0
2016-10-28T04:48:06.272Z,0
2016-10-28T04:49:06.607Z,52
2016-10-28T04:50:06.262Z,48
2016-10-28T04:51:05.972Z,52
2016-10-28T04:52:06.301Z,48
2016-10-28T04:53:06.625Z,52
2016-10-28T04:54:06.022Z,52
2016-10-28T04:55:06.664Z,52
2016-10-28T04:56:06.678Z,52
2016-10-28T04:57:06.714Z,52
2016-10-28T04:58:06.104Z,48
2016-10-28T04:59:06.789Z,48
2016-10-28T05:00:06.461Z,48
2016-10-28T05:01:06.979Z,48
2016-10-28T05:02:06.864Z,48
2016-10-28T05:03:06.571Z,48
2016-10-28T05:04:06.843Z,48
2016-10-28T05:05:06.561Z,48
2016-10-28T05:06:06.580Z,48
2016-10-28T05:07:06.270Z,48
2016-10-28T05:08:06.310Z,48
2016-10-28T05:09:06.322Z,48
2016-10-28T05:10:07.112Z,48
2016-10-28T05:11:07.203Z,48
2016-10-28T05:12:06.442Z,48
2016-10-28T05:13:07.023Z,48
2016-10-28T05:14:07.060Z,48
2016-10-28T05:15:06.779Z,48
2016-10-28T05:16:07.194Z,48
2016-10-28T05:17:06.480Z,48
2016-10-28T05:18:06.602Z,52
2016-10-28T05:19:07.139Z,48
2016-10-28T05:20:06.863Z,48
2016-10-28T05:21:07.181Z,48
2016-10-28T05:22:06.890Z,48
2016-10-28T05:23:06.919Z,48
2016-10-28T05:24:06.633Z,48
2016-10-28T05:25:07.503Z,48
2016-10-28T05:26:06.970Z,48
2016-10-28T05:27:07.299Z,48
2016-10-28T05:28:07.000Z,48
2016-10-28T05:29:07.034Z,48
2016-10-28T05:30:07.081Z,48
2016-10-28T05:31:06.760Z,48
2016-10-28T05:32:07.310Z,48
2016-10-28T05:33:06.821Z,48
2016-10-28T05:34:06.832Z,48
2016-10-28T05:35:07.150Z,48
2016-10-28T05:36:07.200Z,48
2016-10-28T05:37:07.192Z,48
2016-10-28T05:38:07.221Z,48
2016-10-28T05:39:07.605Z,48
2016-10-28T05:40:07.629Z,48
2016-10-28T05:41:07.597Z,48
2016-10-28T05:42:07.315Z,48
2016-10-28T05:43:06.713Z,48
2016-10-28T05:44:07.629Z,48
2016-10-28T05:45:07.660Z,48
2016-10-28T05:46:07.075Z,52
2016-10-28T05:47:07.470Z,52
2016-10-28T05:48:07.417Z,48
2016-10-28T05:49:07.278Z,48
2016-10-28T05:50:07.760Z,52
2016-10-28T05:51:07.469Z,48
2016-10-28T05:52:07.204Z,52
2016-10-28T05:53:07.832Z,52
2016-10-28T05:54:07.859Z,56
2016-10-28T05:55:07.368Z,56
2016-10-28T05:56:07.305Z,60
2016-10-28T05:57:07.606Z,60
2016-10-28T05:58:07.619Z,64
2016-10-28T05:59:07.625Z,72
2016-10-28T06:00:08.075Z,76
2016-10-28T06:01:08.070Z,80
2016-10-28T06:02:07.689Z,84
2016-10-28T06:03:07.111Z,88
2016-10-28T06:04:07.750Z,84
2016-10-28T06:05:07.550Z,80
2016-10-28T06:06:07.497Z,76
2016-10-28T06:07:08.111Z,72
2016-10-28T06:08:08.132Z,80
2016-10-28T06:09:08.340Z,84
2016-10-28T06:10:08.153Z,88
2016-10-28T06:11:07.943Z,92
2016-10-28T06:12:07.602Z,104
2016-10-28T06:13:08.252Z,124
2016-10-28T06:14:08.312Z,132
2016-10-28T06:15:07.958Z,124
2016-10-28T06:16:08.297Z,116
2016-10-28T06:17:08.005Z,120
2016-10-28T06:18:08.338Z,116
2016-10-28T06:19:08.060Z,112
2016-10-28T06:20:08.068Z,124
2016-10-28T06:21:08.620Z,152
2016-10-28T06:22:08.104Z,180
2016-10-28T06:23:08.157Z,200
2016-10-28T06:24:08.171Z,256
2016-10-28T06:25:08.479Z,268
2016-10-28T06:26:08.188Z,264
2016-10-28T06:27:08.026Z,252
2016-10-28T06:28:07.656Z,244
2016-10-28T06:29:08.610Z,224
2016-10-28T06:30:08.578Z,260
2016-10-28T06:31:08.296Z,264
2016-10-28T06:32:08.367Z,264
2016-10-28T06:33:08.057Z,280
2016-10-28T06:34:08.350Z,296
2016-10-28T06:35:08.357Z,360
2016-10-28T06:36:08.400Z,340
2016-10-28T06:37:08.712Z,276
2016-10-28T06:38:08.185Z,264
2016-10-28T06:39:08.472Z,276
2016-10-28T06:40:08.779Z,268
2016-10-28T06:41:08.216Z,260
2016-10-28T06:42:08.873Z,324
2016-10-28T06:43:08.528Z,368
2016-10-28T06:44:08.397Z,448
2016-10-28T06:45:08.604Z,548
2016-10-28T06:46:08.637Z,620
2016-10-28T06:47:08.932Z,632
2016-10-28T06:48:08.948Z,752
2016-10-28T06:49:08.646Z,816
2016-10-28T06:50:08.745Z,820
2016-10-28T06:51:08.678Z,704
2016-10-28T06:52:08.732Z,608
2016-10-28T06:53:08.418Z,676
2016-10-28T06:54:09.068Z,612
2016-10-28T06:55:09.086Z,640
2016-10-28T06:56:08.795Z,568
2016-10-28T06:57:09.327Z,564
2016-10-28T06:58:09.169Z,640
2016-10-28T06:59:08.534Z,636
2016-10-28T07:00:09.169Z,568
2016-10-28T07:01:08.586Z,588
2016-10-28T07:02:08.926Z,660
2016-10-28T07:03:08.983Z,576
2016-10-28T07:04:08.969Z,552
2016-10-28T07:05:09.487Z,636
2016-10-28T07:06:08.968Z,736
2016-10-28T07:07:09.332Z,780
2016-10-28T07:08:09.067Z,844
2016-10-28T07:09:08.996Z,804
2016-10-28T07:10:10.298Z,732
2016-10-28T07:11:09.305Z,684
2016-10-28T07:12:09.602Z,752
2016-10-28T07:13:09.029Z,760
2016-10-28T07:14:09.605Z,748
2016-10-28T07:15:08.725Z,724
2016-10-28T07:16:09.166Z,712
2016-10-28T07:17:09.307Z,772
2016-10-28T07:18:09.458Z,748
2016-10-28T07:19:09.691Z,756
2016-10-28T07:20:09.761Z,772
2016-10-28T07:21:09.655Z,804
2016-10-28T07:22:09.700Z,788
2016-10-28T07:23:10.372Z,844
2016-10-28T07:24:09.735Z,888
2016-10-28T07:25:09.457Z,968
2016-10-28T07:26:09.845Z,896
2016-10-28T07:27:09.108Z,880
2016-10-28T07:28:09.802Z,956
2016-10-28T07:29:09.188Z,1100
2016-10-28T07:30:09.869Z,932
2016-10-28T07:31:10.359Z,944
2016-10-28T07:32:09.511Z,916
2016-10-28T07:33:09.855Z,920
2016-10-28T07:34:09.647Z,892
2016-10-28T07:35:08.956Z,900
2016-10-28T07:36:09.674Z,980
2016-10-28T07:37:10.087Z,1024
2016-10-28T07:38:09.321Z,996
2016-10-28T07:39:09.361Z,920
2016-10-28T07:40:10.074Z,852
2016-10-28T07:41:09.418Z,796
2016-10-28T07:42:10.055Z,796
2016-10-28T07:43:10.065Z,804
2016-10-28T07:44:10.090Z,828
2016-10-28T07:45:09.813Z,820
2016-10-28T07:46:10.165Z,792
2016-10-28T07:47:10.164Z,780
2016-10-28T07:48:10.156Z,896
2016-10-28T07:49:09.860Z,964
2016-10-28T07:50:10.330Z,988
2016-10-28T07:51:10.250Z,936
2016-10-28T07:52:10.264Z,928
2016-10-28T07:53:10.334Z,944
2016-10-28T07:54:10.096Z,1004
2016-10-28T07:55:10.316Z,1024
2016-10-28T07:56:10.336Z,936
2016-10-28T07:57:10.173Z,924
2016-10-28T07:58:10.383Z,920
2016-10-28T07:59:09.453Z,856
2016-10-28T08:00:10.437Z,876
2016-10-28T08:01:10.194Z,856
2016-10-28T08:02:10.287Z,856
2016-10-28T08:03:10.466Z,880
2016-10-28T08:04:10.601Z,868
2016-10-28T08:05:10.255Z,896
2016-10-28T08:06:10.621Z,912
2016-10-28T08:07:10.264Z,932
2016-10-28T08:08:10.589Z,944
2016-10-28T08:09:10.635Z,1000
2016-10-28T08:10:10.895Z,1004
2016-10-28T08:11:10.123Z,972
2016-10-28T08:12:10.365Z,1064
2016-10-28T08:13:10.683Z,1040
2016-10-28T08:14:10.384Z,1012
2016-10-28T08:15:10.422Z,1020
2016-10-28T08:16:09.826Z,1036
2016-10-28T08:17:10.554Z,1092
2016-10-28T08:18:10.794Z,1180
2016-10-28T08:19:10.817Z,1240
2016-10-28T08:20:10.836Z,1264
2016-10-28T08:21:10.244Z,1288
2016-10-28T08:22:10.556Z,1220
2016-10-28T08:23:10.881Z,1092
2016-10-28T08:24:10.887Z,1052
2016-10-28T08:25:10.621Z,1076
2016-10-28T08:26:10.648Z,1128
2016-10-28T08:27:10.996Z,1264
2016-10-28T08:28:10.818Z,1292
2016-10-28T08:29:10.724Z,1340
2016-10-28T08:30:11.045Z,1384
2016-10-28T08:31:11.101Z,1344
2016-10-28T08:32:10.761Z,1388
2016-10-28T08:33:10.778Z,1508
2016-10-28T08:34:10.183Z,1688
2016-10-28T08:35:11.143Z,1656
2016-10-28T08:36:10.552Z,1716
2016-10-28T08:37:10.866Z,1788
2016-10-28T08:38:10.914Z,1844
2016-10-28T08:39:10.597Z,1952
2016-10-28T08:40:11.344Z,1956
2016-10-28T08:41:10.647Z,2140
2016-10-28T08:42:11.290Z,1972
2016-10-28T08:43:11.304Z,2096
2016-10-28T08:44:11.323Z,1980
2016-10-28T08:45:11.352Z,2340
2016-10-28T08:46:11.374Z,2156
2016-10-28T08:47:11.386Z,1920
2016-10-28T08:48:10.773Z,1812
2016-10-28T08:49:11.104Z,1768
2016-10-28T08:50:11.143Z,2144
2016-10-28T08:51:11.204Z,2484
2016-10-28T08:52:11.229Z,2556
2016-10-28T08:53:11.251Z,2268
2016-10-28T08:54:11.565Z,2264
2016-10-28T08:55:11.240Z,2292
2016-10-28T08:56:11.282Z,2208
2016-10-28T08:57:11.000Z,2356
2016-10-28T08:58:11.614Z,2196
2016-10-28T08:59:11.633Z,1928
2016-10-28T09:00:11.345Z,2180
2016-10-28T09:01:10.733Z,2376
2016-10-28T09:02:11.700Z,2248
2016-10-28T09:03:11.397Z,2208
2016-10-28T09:04:11.740Z,2244
2016-10-28T09:05:11.543Z,2036
2016-10-28T09:06:11.193Z,2064
2016-10-28T09:07:11.514Z,2224
2016-10-28T09:08:11.525Z,2520
2016-10-28T09:09:11.535Z,2568
2016-10-28T09:10:11.551Z,2952
2016-10-28T09:11:11.880Z,2948
2016-10-28T09:12:11.700Z,2936
2016-10-28T09:13:11.687Z,2652
2016-10-28T09:14:11.884Z,2904
2016-10-28T09:15:11.482Z,2680
2016-10-28T09:16:11.682Z,2756
2016-10-28T09:17:11.700Z,2552
2016-10-28T09:18:11.737Z,2780
2016-10-28T09:19:12.036Z,2452
2016-10-28T09:20:11.771Z,2680
2016-10-28T09:21:12.123Z,2548
2016-10-28T09:22:12.125Z,2512
2016-10-28T09:23:11.831Z,2780
2016-10-28T09:24:12.193Z,3176
2016-10-28T09:25:12.183Z,2784
2016-10-28T09:26:12.173Z,2872
2016-10-28T09:27:11.594Z,2652
2016-10-28T09:28:12.241Z,2588
2016-10-28T09:29:12.063Z,2560
2016-10-28T09:30:12.305Z,2452
2016-10-28T09:31:12.316Z,2364
2016-10-28T09:32:12.364Z,2468
2016-10-28T09:33:11.713Z,2408
2016-10-28T09:34:12.081Z,2444
2016-10-28T09:35:12.065Z,2436
2016-10-28T09:36:12.423Z,2288
2016-10-28T09:37:12.428Z,2048
2016-10-28T09:38:11.834Z,2032
2016-10-28T09:39:11.871Z,2460
2016-10-28T09:40:12.233Z,2288
2016-10-28T09:41:11.894Z,2404
2016-10-28T09:42:12.588Z,2260
2016-10-28T09:43:12.622Z,2704
2016-10-28T09:44:12.635Z,2960
2016-10-28T09:45:12.398Z,2644
2016-10-28T09:46:12.005Z,2640
2016-10-28T09:47:12.163Z,2776
2016-10-28T09:48:12.344Z,3004
2016-10-28T09:49:12.695Z,2756
2016-10-28T09:50:12.707Z,2476
2016-10-28T09:51:12.443Z,3228
2016-10-28T09:52:12.744Z,2528
2016-10-28T09:53:12.474Z,2616
2016-10-28T09:54:12.848Z,2600
2016-10-28T09:55:12.865Z,2464
2016-10-28T09:56:12.806Z,2276
2016-10-28T09:57:12.562Z,1792
2016-10-28T09:58:12.551Z,1848
2016-10-28T09:59:12.580Z,1492
2016-10-28T10:00:13.176Z,1656
2016-10-28T10:01:12.815Z,1484
2016-10-28T10:02:12.654Z,1480
2016-10-28T10:03:12.667Z,1664
2016-10-28T10:04:13.264Z,1740
2016-10-28T10:05:12.692Z,2032
2016-10-28T10:06:12.791Z,2244
2016-10-28T10:07:12.740Z,2688
2016-10-28T10:08:12.760Z,2756
2016-10-28T10:09:13.457Z,2860
2016-10-28T10:10:13.279Z,2804
2016-10-28T10:11:12.838Z,2588
2016-10-28T10:12:13.255Z,2368
2016-10-28T10:13:12.875Z,2040
2016-10-28T10:14:13.240Z,1932
2016-10-28T10:15:13.345Z,1552
2016-10-28T10:16:13.257Z,1572
2016-10-28T10:17:12.655Z,1504
2016-10-28T10:18:12.657Z,1328
2016-10-28T10:19:13.304Z,1480
2016-10-28T10:20:12.724Z,1244
2016-10-28T10:21:13.348Z,1176
2016-10-28T10:22:13.483Z,1552
2016-10-28T10:23:13.339Z,1584
2016-10-28T10:24:14.011Z,2036
2016-10-28T10:25:13.673Z,2276
2016-10-28T10:26:12.843Z,2752
2016-10-28T10:27:13.494Z,2580
2016-10-28T10:28:13.511Z,2196
2016-10-28T10:29:12.904Z,2064
2016-10-28T10:30:12.912Z,2292
2016-10-28T10:31:13.353Z,2232
2016-10-28T10:32:13.596Z,2360
2016-10-28T10:33:13.653Z,1916
2016-10-28T10:34:13.406Z,2120
2016-10-28T10:35:13.333Z,2168
2016-10-28T10:36:13.686Z,2416
2016-10-28T10:37:13.876Z,2312
2016-10-28T10:38:13.423Z,2400
2016-10-28T10:39:13.623Z,2192
2016-10-28T10:40:13.456Z,2104
2016-10-28T10:41:13.878Z,2320
2016-10-28T10:42:13.552Z,2496
2016-10-28T10:43:13.639Z,2084
2016-10-28T10:44:13.614Z,2304
2016-10-28T10:45:14.065Z,2612
2016-10-28T10:46:13.880Z,3132
2016-10-28T10:47:13.641Z,2876
2016-10-28T10:48:13.583Z,3084
2016-10-28T10:49:13.957Z,3316
2016-10-28T10:50:13.777Z,3096
2016-10-28T10:51:13.667Z,2984
2016-10-28T10:52:14.093Z,3364
2016-10-28T10:53:13.718Z,3216
2016-10-28T10:54:14.128Z,3308
2016-10-28T10:55:14.120Z,3352
2016-10-28T10:56:14.224Z,3244
2016-10-28T10:57:14.139Z,3704
2016-10-28T10:58:13.815Z,3924
2016-10-28T10:59:14.148Z,3652
2016-10-28T11:00:14.223Z,3860
2016-10-28T11:01:14.229Z,2928
2016-10-28T11:02:14.220Z,3108
2016-10-28T11:03:14.070Z,2272
2016-10-28T11:04:14.256Z,2628
2016-10-28T11:05:14.334Z,2200
2016-10-28T11:06:14.356Z,2116
2016-10-28T11:07:14.422Z,2136
2016-10-28T11:08:14.018Z,2264
2016-10-28T11:09:14.360Z,2704
2016-10-28T11:10:13.750Z,2508
2016-10-28T11:11:14.354Z,3452
2016-10-28T11:12:14.116Z,2948
2016-10-28T11:13:14.120Z,2956
2016-10-28T11:14:14.456Z,2596
2016-10-28T11:15:14.463Z,2520
2016-10-28T11:16:14.253Z,2712
2016-10-28T11:17:14.216Z,2656
2016-10-28T11:18:14.550Z,2588
2016-10-28T11:19:14.247Z,2156
2016-10-28T11:20:14.616Z,2920
2016-10-28T11:21:14.350Z,3068
2016-10-28T11:22:14.624Z,2464
2016-10-28T11:23:14.375Z,3240
2016-10-28T11:24:14.668Z,3436
2016-10-28T11:25:14.693Z,3320
2016-10-28T11:26:14.726Z,2884
2016-10-28T11:27:14.737Z,2432
2016-10-28T11:28:14.440Z,2516
2016-10-28T11:29:14.822Z,2612
2016-10-28T11:30:14.816Z,2348
2016-10-28T11:31:14.824Z,2712
2016-10-28T11:32:14.839Z,2576
2016-10-28T11:33:14.875Z,2480
2016-10-28T11:34:14.883Z,3212
2016-10-28T11:35:14.960Z,2704
2016-10-28T11:36:14.610Z,2576
2016-10-28T11:37:14.643Z,2952
2016-10-28T11:38:14.962Z,2696
2016-10-28T11:39:14.680Z,3172
2016-10-28T11:40:15.012Z,2580
2016-10-28T11:41:14.705Z,2776
2016-10-28T11:42:15.211Z,2308
2016-10-28T11:43:15.057Z,2972
2016-10-28T11:44:14.825Z,2944
2016-10-28T11:45:14.797Z,2516
2016-10-28T11:46:15.131Z,2736
2016-10-28T11:47:15.146Z,2652
2016-10-28T11:48:15.166Z,2832
2016-10-28T11:49:14.884Z,2932
2016-10-28T11:50:15.256Z,2216
2016-10-28T11:51:14.925Z,2948
2016-10-28T11:52:15.261Z,2332
2016-10-28T11:53:14.985Z,2456
2016-10-28T11:54:14.986Z,2648
2016-10-28T11:55:15.335Z,2760
2016-10-28T11:56:15.408Z,2864
2016-10-28T11:57:15.086Z,2712
2016-10-28T11:58:15.083Z,2916
2016-10-28T11:59:14.775Z,2724
2016-10-28T12:00:15.435Z,2652
2016-10-28T12:01:15.139Z,2332
2016-10-28T12:02:15.163Z,2612
2016-10-28T12:03:15.489Z,2376
2016-10-28T12:04:15.522Z,1912
2016-10-28T12:05:15.551Z,2352
2016-10-28T12:06:15.257Z,1976
2016-10-28T12:07:15.256Z,1992
2016-10-28T12:08:15.325Z,1916
2016-10-28T12:09:15.315Z,1580
2016-10-28T12:10:15.754Z,1740
2016-10-28T12:11:15.714Z,1620
2016-10-28T12:12:15.361Z,2112
2016-10-28T12:13:15.376Z,1664
2016-10-28T12:14:15.698Z,2304
2016-10-28T12:15:15.747Z,2096
2016-10-28T12:16:15.747Z,2276
2016-10-28T12:17:15.883Z,2112
2016-10-28T12:18:15.797Z,2288
2016-10-28T12:19:15.179Z,1860
2016-10-28T12:20:15.528Z,1492
2016-10-28T12:21:15.654Z,1624
2016-10-28T12:22:15.566Z,2360
2016-10-28T12:23:15.577Z,2624
2016-10-28T12:24:15.933Z,2664
2016-10-28T12:25:15.964Z,2220
2016-10-28T12:26:15.968Z,2308
2016-10-28T12:27:15.985Z,1900
2016-10-28T12:28:16.027Z,1536
2016-10-28T12:29:16.049Z,1832
2016-10-28T12:30:16.214Z,1696
2016-10-28T12:31:15.780Z,2196
2016-10-28T12:32:16.133Z,1900
2016-10-28T12:33:16.123Z,1852
2016-10-28T12:34:16.151Z,2060
2016-10-28T12:35:16.424Z,1912
2016-10-28T12:36:15.865Z,1672
2016-10-28T12:37:15.871Z,1812
2016-10-28T12:38:16.420Z,1984
2016-10-28T12:39:16.465Z,1684
2016-10-28T12:40:16.465Z,1556
2016-10-28T12:41:16.489Z,2504
2016-10-28T12:42:16.031Z,2512
2016-10-28T12:43:16.027Z,2516
2016-10-28T12:44:15.818Z,1976
2016-10-28T12:45:16.663Z,2424
2016-10-28T12:46:16.432Z,2548
2016-10-28T12:47:16.380Z,2900
2016-10-28T12:48:16.495Z,2576
2016-10-28T12:49:16.871Z,2176
2016-10-28T12:50:16.531Z,2128
2016-10-28T12:51:16.644Z,2152
2016-10-28T12:52:16.264Z,2120
2016-10-28T12:53:16.850Z,1936
2016-10-28T12:54:16.252Z,1580
2016-10-28T12:55:16.292Z,1616
2016-10-28T12:56:16.532Z,1848
2016-10-28T12:57:16.664Z,2480
2016-10-28T12:58:16.675Z,2596
2016-10-28T12:59:16.539Z,2348
2016-10-28T13:00:16.745Z,2084
2016-10-28T13:01:16.701Z,1940
2016-10-28T13:02:17.075Z,2052
2016-10-28T13:03:16.754Z,2348
2016-10-28T13:04:16.581Z,2480
2016-10-28T13:05:16.547Z,1604
2016-10-28T13:06:16.793Z,1252
2016-10-28T13:07:16.853Z,1384
2016-10-28T13:08:16.875Z,1372
2016-10-28T13:09:16.993Z,1624
2016-10-28T13:10:17.034Z,1476
2016-10-28T13:11:16.612Z,1260
2016-10-28T13:12:16.763Z,1148
2016-10-28T13:13:16.939Z,1424
2016-10-28T13:14:16.981Z,1628
2016-10-28T13:15:17.014Z,1544
2016-10-28T13:16:17.036Z,1736
2016-10-28T13:17:17.012Z,2148
2016-10-28T13:18:16.714Z,1872
2016-10-28T13:19:17.079Z,2020
2016-10-28T13:20:17.100Z,1900
2016-10-28T13:21:16.806Z,2340
2016-10-28T13:22:17.211Z,2432
2016-10-28T13:23:17.207Z,2172
2016-10-28T13:24:17.159Z,1708
2016-10-28T13:25:17.200Z,1864
2016-10-28T13:26:17.225Z,1844
2016-10-28T13:27:17.278Z,1868
2016-10-28T13:28:16.951Z,1472
2016-10-28T13:29:16.711Z,1372
2016-10-28T13:30:17.322Z,1424
2016-10-28T13:31:17.314Z,1664
2016-10-28T13:32:17.375Z,2092
2016-10-28T13:33:17.056Z,1972
2016-10-28T13:34:17.072Z,1764
2016-10-28T13:35:17.434Z,2048
2016-10-28T13:36:17.443Z,1696
2016-10-28T13:37:17.135Z,2232
2016-10-28T13:38:17.484Z,2180
2016-10-28T13:39:16.864Z,2348
2016-10-28T13:40:17.223Z,2952
2016-10-28T13:41:17.222Z,3264
2016-10-28T13:42:17.548Z,3660
2016-10-28T13:43:17.621Z,3324
2016-10-28T13:44:17.322Z,3468
2016-10-28T13:45:17.612Z,3508
2016-10-28T13:46:17.694Z,4068
2016-10-28T13:47:17.678Z,4332
2016-10-28T13:48:17.693Z,4776
2016-10-28T13:49:17.733Z,4136
2016-10-28T13:50:17.441Z,4372
2016-10-28T13:51:17.746Z,3792
2016-10-28T13:52:17.459Z,3884
2016-10-28T13:53:17.791Z,4032
2016-10-28T13:54:17.800Z,4444
2016-10-28T13:55:17.589Z,3544
2016-10-28T13:56:18.004Z,3116
2016-10-28T13:57:17.911Z,3088